createdAt,value
2022-09-12T00:01:23.247Z,10.00
2022-09-12T00:03:59.255Z,10.10
2022-09-12T00:06:32.331Z,10.00
2022-09-12T00:09:06.804Z,10.10
2022-09-12T00:11:39.465Z,10.10
2022-09-12T00:14:13.276Z,10.10
2022-09-12T00:16:45.226Z,10.00
2022-09-12T00:19:16.998Z,10.00
2022-09-12T00:21:48.742Z,10.00
2022-09-12T00:24:20.635Z,10.00
2022-09-12T00:26:52.442Z,9.90
2022-09-12T00:29:24.165Z,10.00
2022-09-12T00:31:55.991Z,10.00
2022-09-12T00:34:27.887Z,10.00
2022-09-12T00:36:59.646Z,10.00
2022-09-12T00:39:31.413Z,9.90
2022-09-12T00:42:03.320Z,9.90
2022-09-12T00:44:34.976Z,9.90
2022-09-12T00:47:14.189Z,9.90
2022-09-12T00:49:49.729Z,9.90
2022-09-12T00:52:27.874Z,9.80
2022-09-12T00:55:02.570Z,9.90
2022-09-12T00:57:40.243Z,9.90
2022-09-12T01:00:16.700Z,9.90
2022-09-12T01:02:59.978Z,9.90
2022-09-12T01:05:33.675Z,9.90
2022-09-12T01:08:05.956Z,9.80
2022-09-12T01:10:38.719Z,9.80
2022-09-12T01:13:10.985Z,9.80
2022-09-12T01:15:42.734Z,9.80
2022-09-12T01:18:35.750Z,9.80
2022-09-12T01:21:16.503Z,9.70
2022-09-12T01:23:48.255Z,9.80
2022-09-12T01:26:38.847Z,9.80
2022-09-12T01:29:21.841Z,9.70
2022-09-12T01:31:53.594Z,9.80
2022-09-12T01:34:34.666Z,9.70
2022-09-12T01:37:09.466Z,9.70
2022-09-12T01:40:04.358Z,9.80
2022-09-12T01:42:42.123Z,9.80
2022-09-12T01:45:16.232Z,9.70
2022-09-12T01:47:53.415Z,9.70
2022-09-12T01:50:27.788Z,9.70
2022-09-12T01:52:59.454Z,9.70
2022-09-12T01:55:33.993Z,9.70
2022-09-12T01:58:13.954Z,9.70
2022-09-12T02:00:54.488Z,9.70
2022-09-12T02:03:38.095Z,9.70
2022-09-12T02:06:15.249Z,9.60
2022-09-12T02:08:49.446Z,9.60
2022-09-12T02:11:21.348Z,9.60
2022-09-12T02:13:53.040Z,9.60
2022-09-12T02:16:34.404Z,9.60
2022-09-12T02:19:11.762Z,9.60
2022-09-12T02:21:52.222Z,9.60
2022-09-12T02:24:30.137Z,9.60
2022-09-12T02:27:17.299Z,9.60
2022-09-12T02:29:51.883Z,9.60
2022-09-12T02:32:23.580Z,9.60
2022-09-12T02:34:55.298Z,9.60
2022-09-12T02:37:27.312Z,9.60
2022-09-12T02:40:00.099Z,9.60
2022-09-12T02:42:31.947Z,9.60
2022-09-12T02:45:04.013Z,9.60
2022-09-12T02:48:02.287Z,9.60
2022-09-12T02:50:34.460Z,9.60
2022-09-12T02:53:07.305Z,9.60
2022-09-12T02:55:40.531Z,9.70
2022-09-12T02:58:16.154Z,9.70
2022-09-12T03:00:51.512Z,9.70
2022-09-12T03:03:32.207Z,9.70
2022-09-12T03:06:11.080Z,9.70
2022-09-12T03:08:45.992Z,9.60
2022-09-12T03:11:26.666Z,9.60
2022-09-12T03:14:17.214Z,9.60
2022-09-12T03:17:07.493Z,9.70
2022-09-12T03:19:45.522Z,9.70
2022-09-12T03:22:35.798Z,9.60
2022-09-12T03:25:19.028Z,9.60
2022-09-12T03:28:07.388Z,9.60
2022-09-12T03:30:41.230Z,9.60
2022-09-12T03:33:16.178Z,9.60
2022-09-12T03:35:48.687Z,9.60
2022-09-12T03:38:20.458Z,9.60
2022-09-12T03:40:54.854Z,9.60
2022-09-12T03:43:26.796Z,9.50
2022-09-12T03:45:58.593Z,9.60
2022-09-12T03:48:31.830Z,9.60
2022-09-12T03:51:05.246Z,9.60
2022-09-12T03:53:37.275Z,9.50
2022-09-12T03:56:10.166Z,9.60
2022-09-12T03:58:42.365Z,9.60
2022-09-12T04:01:15.647Z,9.50
2022-09-12T04:03:48.680Z,9.50
2022-09-12T04:06:21.586Z,9.50
2022-09-12T04:08:54.125Z,9.50
2022-09-12T04:11:25.984Z,9.50
2022-09-12T04:13:57.796Z,9.50
2022-09-12T04:16:29.640Z,9.50
2022-09-12T04:19:01.388Z,9.60
2022-09-12T04:21:35.683Z,9.50
2022-09-12T04:24:07.430Z,9.50
2022-09-12T04:26:39.228Z,9.50
2022-09-12T04:29:15.162Z,9.50
2022-09-12T04:31:46.976Z,9.50
2022-09-12T04:34:18.857Z,9.50
2022-09-12T04:36:50.620Z,9.50
2022-09-12T04:39:22.306Z,9.50
2022-09-12T04:41:54.444Z,9.50
2022-09-12T04:44:26.146Z,9.50
2022-09-12T04:46:57.901Z,9.50
2022-09-12T04:49:32.005Z,9.60
2022-09-12T04:52:06.310Z,9.60
2022-09-12T04:54:38.054Z,9.70
2022-09-12T04:57:10.333Z,9.80
2022-09-12T04:59:42.175Z,9.90
2022-09-12T05:02:14.011Z,9.90
2022-09-12T05:04:46.994Z,9.90
2022-09-12T05:07:19.499Z,10.00
2022-09-12T05:09:51.241Z,10.10
2022-09-12T05:12:23.041Z,10.20
2022-09-12T05:14:54.779Z,10.30
2022-09-12T05:17:31.951Z,10.30
2022-09-12T05:20:04.120Z,10.40
2022-09-12T05:22:35.849Z,10.40
2022-09-12T05:25:08.025Z,10.50
2022-09-12T05:27:39.857Z,10.60
2022-09-12T05:30:11.883Z,10.70
2022-09-12T05:32:43.740Z,10.70
2022-09-12T05:35:15.691Z,10.80
2022-09-12T05:37:47.501Z,10.80
2022-09-12T05:40:19.461Z,10.90
2022-09-12T05:42:51.238Z,11.00
2022-09-12T05:45:23.028Z,11.00
2022-09-12T05:47:58.943Z,11.10
2022-09-12T05:50:30.742Z,11.20
2022-09-12T05:53:02.569Z,11.30
2022-09-12T05:55:34.933Z,11.40
2022-09-12T05:58:07.535Z,11.50
2022-09-12T06:00:39.287Z,11.50
2022-09-12T06:03:11.124Z,11.70
2022-09-12T06:05:42.828Z,11.80
2022-09-12T06:08:14.607Z,11.90
2022-09-12T06:10:46.351Z,12.00
2022-09-12T06:13:18.189Z,12.10
2022-09-12T06:15:50.173Z,12.20
2022-09-12T06:18:21.994Z,12.20
2022-09-12T06:20:53.852Z,12.20
2022-09-12T06:23:27.010Z,12.30
2022-09-12T06:25:58.805Z,12.30
2022-09-12T06:28:33.712Z,12.40
2022-09-12T06:31:06.919Z,12.50
2022-09-12T06:33:40.173Z,12.70
2022-09-12T06:36:16.139Z,13.00
2022-09-12T06:38:48.953Z,14.10
2022-09-12T06:41:20.654Z,15.50
2022-09-12T06:43:53.794Z,16.00
2022-09-12T06:46:26.174Z,16.10
2022-09-12T06:49:00.970Z,16.70
2022-09-12T06:51:32.740Z,17.10
2022-09-12T06:54:05.504Z,17.40
2022-09-12T06:56:37.799Z,18.30
2022-09-12T06:59:09.690Z,19.20
2022-09-12T07:01:42.065Z,19.50
2022-09-12T07:04:14.100Z,19.70
2022-09-12T07:06:45.889Z,20.10
2022-09-12T07:09:17.691Z,19.90
2022-09-12T07:11:49.402Z,20.00
2022-09-12T07:14:21.184Z,20.40
2022-09-12T07:16:55.398Z,20.50
2022-09-12T07:19:27.239Z,20.00
2022-09-12T07:21:58.974Z,19.70
2022-09-12T07:24:30.722Z,19.50
2022-09-12T07:27:02.559Z,20.20
2022-09-12T07:29:37.517Z,20.40
2022-09-12T07:32:12.221Z,20.00
2022-09-12T07:34:45.483Z,20.20
2022-09-12T07:37:17.174Z,20.30
2022-09-12T07:39:51.301Z,20.10
2022-09-12T07:42:23.386Z,19.60
2022-09-12T07:44:55.122Z,19.30
2022-09-12T07:47:26.865Z,19.20
2022-09-12T07:49:59.178Z,18.50
2022-09-12T07:52:33.750Z,18.10
2022-09-12T07:55:05.715Z,18.00
2022-09-12T07:57:37.708Z,18.00
2022-09-12T08:00:11.940Z,18.00
2022-09-12T08:02:43.742Z,18.00
2022-09-12T08:05:15.552Z,18.00
2022-09-12T08:07:49.811Z,17.80
2022-09-12T08:10:23.744Z,17.70
2022-09-12T08:12:57.694Z,17.40
2022-09-12T08:15:29.691Z,17.30
2022-09-12T08:18:01.772Z,17.10
2022-09-12T08:20:33.563Z,17.10
2022-09-12T08:23:05.397Z,16.90
2022-09-12T08:25:37.287Z,16.60
2022-09-12T08:28:09.093Z,16.60
2022-09-12T08:30:40.920Z,16.40
2022-09-12T08:33:15.404Z,16.50
2022-09-12T08:35:47.481Z,16.60
2022-09-12T08:38:19.777Z,16.60
2022-09-12T08:40:54.681Z,16.50
2022-09-12T08:43:41.418Z,16.50
2022-09-12T08:46:30.512Z,16.50
2022-09-12T08:49:02.878Z,16.80
2022-09-12T08:51:35.245Z,16.80
2022-09-12T08:54:12.398Z,16.70
2022-09-12T08:56:45.165Z,16.50
2022-09-12T08:59:16.876Z,16.40
2022-09-12T09:01:53.764Z,16.40
2022-09-12T09:04:30.750Z,16.70
2022-09-12T09:07:02.618Z,16.90
2022-09-12T09:09:37.477Z,17.30
2022-09-12T09:12:28.002Z,17.50
2022-09-12T09:15:15.291Z,17.60
2022-09-12T09:17:50.004Z,17.50
2022-09-12T09:20:24.671Z,17.40
2022-09-12T09:22:58.982Z,17.40
2022-09-12T09:25:38.879Z,17.50
2022-09-12T09:28:16.910Z,17.60
2022-09-12T09:30:48.815Z,17.70
2022-09-12T09:33:22.737Z,17.80
2022-09-12T09:36:11.342Z,17.80
2022-09-12T09:38:51.294Z,17.60
2022-09-12T09:41:30.235Z,17.30
2022-09-12T09:44:02.987Z,17.00
2022-09-12T09:46:34.899Z,17.00
2022-09-12T09:49:13.460Z,17.20
2022-09-12T09:51:45.226Z,17.30
2022-09-12T09:54:24.522Z,17.50
2022-09-12T09:56:56.278Z,17.60
2022-09-12T09:59:28.024Z,17.70
2022-09-12T10:02:06.641Z,17.70
2022-09-12T10:04:42.303Z,17.60
2022-09-12T10:07:21.784Z,17.50
2022-09-12T10:10:05.889Z,17.50
2022-09-12T10:12:37.755Z,17.60
2022-09-12T10:15:20.475Z,17.70
2022-09-12T10:17:52.775Z,17.90
2022-09-12T10:20:42.924Z,18.10
2022-09-12T10:23:17.630Z,18.40
2022-09-12T10:25:54.020Z,18.30
2022-09-12T10:28:52.066Z,18.00
2022-09-12T10:31:34.012Z,17.90
2022-09-12T10:34:05.868Z,17.90
2022-09-12T10:36:38.853Z,17.80
2022-09-12T10:39:16.261Z,17.60
2022-09-12T10:41:50.475Z,17.50
2022-09-12T10:44:27.099Z,17.60
2022-09-12T10:47:00.009Z,17.80
2022-09-12T10:49:38.072Z,17.90
2022-09-12T10:52:36.001Z,18.00
2022-09-12T10:55:12.685Z,17.90
2022-09-12T10:57:51.281Z,18.10
2022-09-12T11:00:28.015Z,18.10
2022-09-12T11:03:05.564Z,18.00
2022-09-12T11:05:44.109Z,17.80
2022-09-12T11:08:22.282Z,17.60
2022-09-12T11:11:06.922Z,17.50
2022-09-12T11:13:57.527Z,17.50
2022-09-12T11:16:52.542Z,17.70
2022-09-12T11:19:39.618Z,18.00
2022-09-12T11:22:14.805Z,18.20
2022-09-12T11:24:46.506Z,17.90
2022-09-12T11:27:36.975Z,17.70
2022-09-12T11:30:11.163Z,17.50
2022-09-12T11:32:54.930Z,17.50
2022-09-12T11:35:27.556Z,17.60
2022-09-12T11:38:08.374Z,17.80
2022-09-12T11:40:43.908Z,18.00
2022-09-12T11:43:21.890Z,18.10
2022-09-12T11:45:56.539Z,17.90
2022-09-12T11:48:44.945Z,17.60
2022-09-12T11:51:23.742Z,17.50
2022-09-12T11:53:59.689Z,17.50
2022-09-12T11:56:31.633Z,17.60
2022-09-12T11:59:09.659Z,17.80
2022-09-12T12:01:48.511Z,17.90
2022-09-12T12:04:22.140Z,18.00
2022-09-12T12:07:05.945Z,18.00
2022-09-12T12:09:51.279Z,17.70
2022-09-12T12:12:27.356Z,17.40
2022-09-12T12:14:59.772Z,17.10
2022-09-12T12:17:33.429Z,16.90
2022-09-12T12:20:08.599Z,16.90
2022-09-12T12:22:50.947Z,17.00
2022-09-12T12:25:29.700Z,17.10
2022-09-12T12:28:02.248Z,17.20
2022-09-12T12:30:56.819Z,17.10
2022-09-12T12:33:29.203Z,17.10
2022-09-12T12:36:01.130Z,17.00
2022-09-12T12:38:37.378Z,16.80
2022-09-12T12:41:17.941Z,16.80
2022-09-12T12:43:57.780Z,16.90
2022-09-12T12:46:29.703Z,17.10
2022-09-12T12:49:19.104Z,17.30
2022-09-12T12:51:53.905Z,17.30
2022-09-12T12:54:46.144Z,17.00
2022-09-12T12:57:41.557Z,16.80
2022-09-12T13:00:25.502Z,16.60
2022-09-12T13:02:59.831Z,16.50
2022-09-12T13:05:39.520Z,16.50
2022-09-12T13:08:31.689Z,16.50
2022-09-12T13:11:30.447Z,16.60
2022-09-12T13:14:04.798Z,16.80
2022-09-12T13:16:38.440Z,17.00
2022-09-12T13:19:18.157Z,17.10
2022-09-12T13:21:57.331Z,17.30
2022-09-12T13:24:29.159Z,17.30
2022-09-12T13:27:03.018Z,17.30
2022-09-12T13:29:34.815Z,17.30
2022-09-12T13:32:07.083Z,17.30
2022-09-12T13:34:57.763Z,17.20
2022-09-12T13:37:40.042Z,17.30
2022-09-12T13:40:24.279Z,17.40
2022-09-12T13:43:08.739Z,17.50
2022-09-12T13:45:40.534Z,17.60
2022-09-12T13:48:20.615Z,17.70
2022-09-12T13:50:57.496Z,17.80
2022-09-12T13:53:32.030Z,17.80
2022-09-12T13:56:03.889Z,17.90
2022-09-12T13:58:38.421Z,18.30
2022-09-12T14:01:10.266Z,18.60
2022-09-12T14:04:01.989Z,18.90
2022-09-12T14:06:52.544Z,19.50
2022-09-12T14:09:34.529Z,20.20
2022-09-12T14:12:18.326Z,20.50
2022-09-12T14:14:51.038Z,20.20
2022-09-12T14:17:36.356Z,19.60
2022-09-12T14:20:14.188Z,19.20
2022-09-12T14:22:50.921Z,18.80
2022-09-12T14:25:25.196Z,18.60
2022-09-12T14:27:57.515Z,18.40
2022-09-12T14:30:32.990Z,18.20
2022-09-12T14:33:10.914Z,18.10
2022-09-12T14:35:44.070Z,17.90
2022-09-12T14:38:15.763Z,17.80
2022-09-12T14:40:48.778Z,17.70
2022-09-12T14:43:23.299Z,17.60
2022-09-12T14:45:56.621Z,17.50
2022-09-12T14:48:30.410Z,17.50
2022-09-12T14:51:02.633Z,17.50
2022-09-12T14:53:35.874Z,17.50
2022-09-12T14:56:12.550Z,17.30
2022-09-12T14:58:44.278Z,17.30
2022-09-12T15:01:16.132Z,17.20
2022-09-12T15:03:49.992Z,17.20
2022-09-12T15:06:32.194Z,17.10
2022-09-12T15:09:07.099Z,16.90
2022-09-12T15:11:39.333Z,16.70
2022-09-12T15:14:14.351Z,16.50
2022-09-12T15:16:46.178Z,16.50
2022-09-12T15:19:17.917Z,16.40
2022-09-12T15:21:49.720Z,16.40
2022-09-12T15:24:21.537Z,16.40
2022-09-12T15:26:55.486Z,16.40
2022-09-12T15:29:27.250Z,16.40
2022-09-12T15:31:59.113Z,16.30
2022-09-12T15:34:30.883Z,16.30
2022-09-12T15:37:02.990Z,16.30
2022-09-12T15:39:34.679Z,16.30
2022-09-12T15:42:06.600Z,16.30
2022-09-12T15:44:38.432Z,16.30
2022-09-12T15:47:11.795Z,16.30
2022-09-12T15:49:43.548Z,16.30
2022-09-12T15:52:16.724Z,16.30
2022-09-12T15:54:48.474Z,16.30
2022-09-12T15:57:23.070Z,16.30
2022-09-12T15:59:54.827Z,16.20
2022-09-12T16:02:26.872Z,16.10
2022-09-12T16:04:58.647Z,16.10
2022-09-12T16:07:30.496Z,16.00
2022-09-12T16:10:02.173Z,15.90
2022-09-12T16:12:33.953Z,15.80
2022-09-12T16:15:05.990Z,15.70
2022-09-12T16:17:37.753Z,15.60
2022-09-12T16:20:09.967Z,15.50
2022-09-12T16:22:42.482Z,15.30
2022-09-12T16:25:14.200Z,15.20
2022-09-12T16:27:48.687Z,15.10
2022-09-12T16:30:20.598Z,14.90
2022-09-12T16:32:52.457Z,14.80
2022-09-12T16:35:24.213Z,14.70
2022-09-12T16:37:56.034Z,14.70
2022-09-12T16:40:30.299Z,14.60
2022-09-12T16:43:02.070Z,14.50
2022-09-12T16:45:34.028Z,14.50
2022-09-12T16:48:05.843Z,14.40
2022-09-12T16:50:37.608Z,14.40
2022-09-12T16:53:11.716Z,14.30
2022-09-12T16:55:48.493Z,14.30
2022-09-12T16:58:20.401Z,14.20
2022-09-12T17:01:15.435Z,14.10
2022-09-12T17:03:47.853Z,14.10
2022-09-12T17:06:20.108Z,14.00
2022-09-12T17:08:53.732Z,13.90
2022-09-12T17:11:31.969Z,13.90
2022-09-12T17:14:06.997Z,13.80
2022-09-12T17:16:41.259Z,13.70
2022-09-12T17:19:18.198Z,13.70
2022-09-12T17:21:50.219Z,13.60
2022-09-12T17:24:23.176Z,13.50
2022-09-12T17:26:55.157Z,13.50
2022-09-12T17:29:27.541Z,13.50
2022-09-12T17:31:59.913Z,13.40
2022-09-12T17:34:32.333Z,13.30
2022-09-12T17:37:04.187Z,13.20
2022-09-12T17:39:35.949Z,13.20
2022-09-12T17:42:09.170Z,13.10
2022-09-12T17:44:46.498Z,13.00
2022-09-12T17:47:18.743Z,13.00
2022-09-12T17:49:51.175Z,12.90
2022-09-12T17:52:23.368Z,12.80
2022-09-12T17:55:00.731Z,12.90
2022-09-12T17:57:32.653Z,12.80
2022-09-12T18:00:05.636Z,12.80
2022-09-12T18:02:39.288Z,12.80
2022-09-12T18:05:11.363Z,12.70
2022-09-12T18:07:44.264Z,12.70
2022-09-12T18:10:16.581Z,12.60
2022-09-12T18:12:48.806Z,12.60
2022-09-12T18:15:20.715Z,12.60
2022-09-12T18:17:55.066Z,12.50
2022-09-12T18:20:27.385Z,12.50
2022-09-12T18:22:59.963Z,12.50
2022-09-12T18:25:32.186Z,12.40
2022-09-12T18:28:07.295Z,12.40
2022-09-12T18:30:41.734Z,12.40
2022-09-12T18:33:23.890Z,12.30
2022-09-12T18:35:56.200Z,12.30
2022-09-12T18:38:28.054Z,12.30
2022-09-12T18:41:06.505Z,12.30
2022-09-12T18:43:38.981Z,12.30
2022-09-12T18:46:16.917Z,12.30
2022-09-12T18:48:49.009Z,12.20
2022-09-12T18:51:22.621Z,12.20
2022-09-12T18:53:56.419Z,12.20
2022-09-12T18:56:33.160Z,12.10
2022-09-12T18:59:06.883Z,12.10
2022-09-12T19:01:39.246Z,12.00
2022-09-12T19:04:13.008Z,12.00
2022-09-12T19:06:46.683Z,12.00
2022-09-12T19:09:21.149Z,11.90
2022-09-12T19:11:52.993Z,11.90
2022-09-12T19:14:28.333Z,11.90
2022-09-12T19:17:00.563Z,11.90
2022-09-12T19:19:32.503Z,11.80
2022-09-12T19:22:04.680Z,11.80
2022-09-12T19:24:36.594Z,11.80
2022-09-12T19:27:08.531Z,11.80
2022-09-12T19:29:40.501Z,11.80
2022-09-12T19:32:15.026Z,11.70
2022-09-12T19:34:48.699Z,11.70
2022-09-12T19:37:20.552Z,11.70
2022-09-12T19:39:55.152Z,11.60
2022-09-12T19:42:29.900Z,11.60
2022-09-12T19:45:04.379Z,11.60
2022-09-12T19:47:36.203Z,11.50
2022-09-12T19:50:08.130Z,11.50
2022-09-12T19:52:42.398Z,11.50
2022-09-12T19:55:14.261Z,11.40
2022-09-12T19:57:46.231Z,11.40
2022-09-12T20:00:20.336Z,11.40
2022-09-12T20:02:53.270Z,11.40
2022-09-12T20:05:27.402Z,11.30
2022-09-12T20:07:59.997Z,11.30
2022-09-12T20:10:31.880Z,11.30
2022-09-12T20:13:03.781Z,11.30
2022-09-12T20:15:35.762Z,11.30
2022-09-12T20:18:07.751Z,11.30
2022-09-12T20:20:39.538Z,11.30
2022-09-12T20:23:11.338Z,11.30
2022-09-12T20:25:43.140Z,11.20
2022-09-12T20:28:15.486Z,11.20
2022-09-12T20:30:47.290Z,11.20
2022-09-12T20:33:19.318Z,11.10
2022-09-12T20:35:51.316Z,11.10
2022-09-12T20:38:23.133Z,11.10
2022-09-12T20:40:55.348Z,11.10
2022-09-12T20:43:27.181Z,11.00
2022-09-12T20:46:01.312Z,11.00
2022-09-12T20:48:33.246Z,11.00
2022-09-12T20:51:05.361Z,11.00
2022-09-12T20:53:37.652Z,11.00
2022-09-12T20:56:09.472Z,11.00
2022-09-12T20:58:44.597Z,11.00
2022-09-12T21:01:17.003Z,10.90
2022-09-12T21:03:49.588Z,10.90
2022-09-12T21:06:21.633Z,10.90
2022-09-12T21:08:53.782Z,10.90
2022-09-12T21:11:25.585Z,10.90
2022-09-12T21:13:58.114Z,10.80
2022-09-12T21:16:29.910Z,10.70
2022-09-12T21:19:01.754Z,10.70
2022-09-12T21:21:33.486Z,10.70
2022-09-12T21:24:05.847Z,10.70
2022-09-12T21:26:39.882Z,10.60
2022-09-12T21:29:12.716Z,10.50
2022-09-12T21:31:44.620Z,10.50
2022-09-12T21:34:16.456Z,10.50
2022-09-12T21:36:50.941Z,10.50
2022-09-12T21:39:25.102Z,10.40
2022-09-12T21:41:56.814Z,10.40
2022-09-12T21:44:30.998Z,10.40
2022-09-12T21:47:02.730Z,10.30
2022-09-12T21:49:36.863Z,10.30
2022-09-12T21:52:08.568Z,10.20
2022-09-12T21:54:40.513Z,10.20
2022-09-12T21:57:14.454Z,10.20
2022-09-12T21:59:46.247Z,10.10
2022-09-12T22:02:18.110Z,10.10
2022-09-12T22:04:50.217Z,10.10
2022-09-12T22:07:22.647Z,10.00
2022-09-12T22:09:54.540Z,10.00
2022-09-12T22:12:29.450Z,10.00
2022-09-12T22:15:12.824Z,9.90
2022-09-12T22:17:52.955Z,9.90
2022-09-12T22:20:24.739Z,9.80
2022-09-12T22:23:24.373Z,9.80
2022-09-12T22:25:56.818Z,9.80
2022-09-12T22:28:32.224Z,9.80
2022-09-12T22:31:04.075Z,9.80
2022-09-12T22:33:36.075Z,9.70
2022-09-12T22:36:09.003Z,9.70
2022-09-12T22:38:40.820Z,9.70
2022-09-12T22:41:13.318Z,9.70
2022-09-12T22:43:45.366Z,9.70
2022-09-12T22:46:17.190Z,9.60
2022-09-12T22:48:48.955Z,9.70
2022-09-12T22:51:20.716Z,9.60
2022-09-12T22:53:52.576Z,9.60
2022-09-12T22:56:25.014Z,9.60
2022-09-12T22:58:56.743Z,9.60
2022-09-12T23:01:28.608Z,9.60
2022-09-12T23:04:00.493Z,9.60
2022-09-12T23:06:34.912Z,9.60
2022-09-12T23:09:06.659Z,9.60
2022-09-12T23:11:38.677Z,9.50
2022-09-12T23:14:10.433Z,9.50
2022-09-12T23:16:42.192Z,9.50
2022-09-12T23:19:13.951Z,9.50
2022-09-12T23:21:48.078Z,9.50
2022-09-12T23:24:19.854Z,9.50
2022-09-12T23:26:51.673Z,9.50
2022-09-12T23:29:23.491Z,9.40
2022-09-12T23:31:55.534Z,9.40
2022-09-12T23:34:27.532Z,9.40
2022-09-12T23:36:59.338Z,9.40
2022-09-12T23:39:31.888Z,9.40
2022-09-12T23:42:06.785Z,9.40
2022-09-12T23:44:38.553Z,9.40
2022-09-12T23:47:10.334Z,9.40
2022-09-12T23:49:42.094Z,9.40
2022-09-12T23:52:13.895Z,9.30
2022-09-12T23:54:47.866Z,9.30
2022-09-12T23:57:19.587Z,9.20
2022-09-12T23:59:51.427Z,9.30
